首页
METAR-TAF:

METAR-TAF

机场 :

图克托亚图克, 西北特區, 加拿大

纬度: 69-27N, 经度: 133-01W, 海拔: 5米

当前天气观测

该预报发布于34分钟前的22:00 UTC
风速9节,风向
温度 7°C
湿度 53%
气压 1018 hPa
能見度: 24.1公里
少量云层高于1000英尺

METAR: CYUB 032200Z 09009KT 15SM FEW010 07/M02 A3007 RMK SC1 SC TR SLP184

时间: 16:34 (22:34 UTC)

预报

该预报发布于3小时和56分钟前的18:38 UTC
预报有效从03日的 19点(UTC)到 04日的 05点(UTC)
风速12节,风向
能見度: 10公里
天空无云

TAF: CYUB 031838Z 0319/0405 10012KT P6SM SKC RMK NXT FCST BY 040100Z

超过4000个机场的气象观测和天气预报(METAR&TAF报告)。

可查询的气象台以黄色和红色小点在地图上表示。

将鼠标移到小点上方,可查看气象台名称。

然后点击查看天气观测和预报。

如需切换地图:点击带黑十字的绿色按钮放大地图;点击带横线的绿色按钮缩小地图;或者点击绿色箭头查看邻近地区的地图。


METAR-TAF: